AirNav   Everest Fuels
 
 1112 users online  

9NC4 Jiles Field Airport
Gates, North Carolina, USA

GOING TO GATES?


FAA INFORMATION EFFECTIVE 01 DECEMBER 2022

Location

FAA Identifier: 9NC4
Lat/Long: 36-30-34.0000N 076-39-51.0000W
36-30.566667N 076-39.850000W
36.5094444,-76.6641667
(estimated)
Elevation: 75 ft. / 23 m (estimated)
Variation: 10W ()
From city: 5 miles NE of GATES, NC
Time zone: UTC -5 (UTC -4 during Daylight Saving Time)
Zip code: 27926

Airport Operations

Airport use: Private use. Permission required prior to landing
Activation date: 07/1999
Control tower: no
ARTCC: WASHINGTON CENTER
FSS: RALEIGH FLIGHT SERVICE STATION
Attendance: UNATNDD
Segmented circle: no

Airport Communications

WX AWOS-3 at SFQ (11 nm N): 119.375 (757-934-3942)
WX AWOS-3PT at FKN (16 nm NW): 124.675 (757-562-8765)
WX AWOS-3 at CPK (19 nm NE): 123.675 (757-204-4290)
WX AWOS-3PT at PVG (19 nm NE): 118.375 (757-465-2175)

Nearby radio navigation aids

VOR radial/distance  VOR name  Freq  Var
CVIr060/12.9COFIELD VORTAC114.6009W
FKNr135/20.8FRANKLIN VORTAC110.6009W
ECGr310/28.0ELIZABETH CITY VOR/DME112.5007W
ORFr231/32.0NORFOLK VORTAC116.9007W

 
NDB name  Hdg/Dist  Freq  Var  ID
WOODVILLE320/23.125410WLLW .-.. .-.. .--
WAKEFIELD161/32.727411WAKQ .- -.- --.-

Airport Services

Runway Information

Runway 18/36

Dimensions: 2000 x 40 ft. / 610 x 12 m
Surface: turf
RUNWAY 18  RUNWAY 36
Traffic pattern: leftleft
Obstructions: 25 ft. trees, 500 ft. from runway25 ft. pline, 500 ft. from runway

Airport Ownership and Management from official FAA records

Ownership: Privately-owned
Owner: JEROME W. JILES
125 SAUNDERSTOWN RD
CORAPEAKE, NC 27926
Phone 252-465-2169
DAYTIME PHONE 804-658-4174.
Manager: JEROME W. JILES
125 SAUNDERSTOWN RD
CORAPEAKE, NC 27926-9519
Phone 757-641-7579

Additional Remarks

OWNER DESIRES ARPT NOT BE CHARTED.
FOR CD CTC NORFOLK APCH AT 757-464-0757.

Instrument Procedures

There are no published instrument procedures at 9NC4.

Some nearby airports with instrument procedures:

KSFQ - Suffolk Executive Airport (11 nm N)
KFKN - Franklin Regional Airport (16 nm NW)
KCPK - Chesapeake Regional Airport (19 nm NE)
KPVG - Hampton Roads Executive Airport (19 nm NE)
KASJ - Tri-County Airport at Henry Joyner Field (28 nm SW)
 
Loc | Ops | Rwys | IFR | FBO | Links
Com | Nav | Svcs | Stats | Notes
Area around 9NC4 (Jiles Field Airport)
 
Road maps at: MapQuest Bing Google
 
Aerial photo
No photo
 
Sectional chart

 
Airport distance calculator
Flying to Jiles Field Airport? Find the distance to fly.

From to 9NC4

Sunrise and sunset
Times for 06-Dec-2022
 Local
(UTC-5)
 Zulu
(UTC)
Morning civil twilight06:3711:37
Sunrise07:0512:05
Sunset16:5021:50
Evening civil twilight17:1822:18

Current date and time
Zulu (UTC)  07-Dec-2022 03:00:01
Local (UTC-5)  06-Dec-2022 22:00:01
 
METAR
KSFQ 
11nm N 
070235Z AUTO 17006KT 10SM OVC085 18/17 A3026 RMK AO2 LTG DSNT NW T01750165
KFKN 
16nm NW 
070235Z AUTO 17003KT 10SM BKN010 BKN029 OVC090 16/15 A3025 RMK AO2 T01550152
KCPK 
19nm NE 
070255Z AUTO 16005KT 10SM OVC100 16/15 A3024 RMK AO2 T01580148
KPVG 
19nm NE 
070255Z 18005KT 10SM FEW008 OVC085 16/16 A3025 RMK AO2 SLP303 54000 PWINO PNO FZRANO RVRNO
TAF
KECG 
27nm SE 
061938Z 0620/0718 16006KT P6SM SCT020 BKN040 TEMPO 0620/0624 BKN020 FM070000 18004KT P6SM BKN030 FM070900 VRB03KT P6SM BKN015 FM071500 21006KT P6SM BKN025
KNGU 
31nm NE 
0623/0723 VRB06KT 9999 VCSH BKN030 OVC060 QNH3022INS TEMPO 0623/0704 4800 -SHRA BR BKN010 OVC030 FM070400 VRB05KT 4800 -SHRA BR BKN007 OVC020 QNH3021INS TEMPO 0704/0710 1600 SHRA BR OVC005 FM071000 VRB05KT 6000 BR VCSH SCT008 OVC020 QNH3022INS TEMPO 0710/0715 3200 SHRA BR OVC005 FM071500 22008KT 4800 SHRA BR BKN005 OVC020 QNH3017INS TEMPO 0715/0721 1600 SHRA BR OVC004 T17/0619Z T14/0710Z FN20002
KORF 
32nm NE 
061939Z 0620/0718 18005KT P6SM SCT025 OVC050 TEMPO 0620/0624 BKN025 OVC050 FM070000 20005KT 6SM -RA BR BKN025 FM070700 20005KT 5SM -RA BR BKN015 FM071600 22007KT 6SM BR BKN035
NOTAMs
Click for the latest NOTAMs
NOTAMs are issued by the DoD/FAA and will open in a separate window not controlled by AirNav.

 

 
 

Would you like to see your business listed on this page?

 If your business provides an interesting product or service to pilots, flight crews, aircraft, or users of the Jiles Field Airport, you should consider listing it here.  To start the listing process, click on the button below
 
Add a business
 

Other Pages about Jiles Field Airport

Update a link
 
Copyright © AirNav, LLC. All rights reserved. Privacy Policy  Contact